sensor_id;sensor_type;location;lat;lon;timestamp;pressure;altitude;pressure_sealevel;temperature;humidity
51439;BME280;38816;51.142;-0.974;2023-02-18T00:01:15;100879.16;;;10.21;100.00
51439;BME280;38816;51.142;-0.974;2023-02-18T00:03:41;100873.09;;;10.19;100.00
51439;BME280;38816;51.142;-0.974;2023-02-18T00:06:27;100867.91;;;10.18;100.00
51439;BME280;38816;51.142;-0.974;2023-02-18T00:08:53;100858.56;;;10.20;100.00
51439;BME280;38816;51.142;-0.974;2023-02-18T00:11:20;100863.72;;;10.21;100.00
51439;BME280;38816;51.142;-0.974;2023-02-18T00:13:57;100857.63;;;10.18;100.00
51439;BME280;38816;51.142;-0.974;2023-02-18T00:16:23;100873.00;;;10.16;100.00
51439;BME280;38816;51.142;-0.974;2023-02-18T00:18:49;100862.47;;;10.07;100.00
51439;BME280;38816;51.142;-0.974;2023-02-18T00:21:15;100848.53;;;9.99;100.00
51439;BME280;38816;51.142;-0.974;2023-02-18T00:23:41;100864.91;;;10.02;100.00
51439;BME280;38816;51.142;-0.974;2023-02-18T00:26:10;100863.88;;;9.96;100.00
51439;BME280;38816;51.142;-0.974;2023-02-18T00:28:36;100858.81;;;9.99;100.00
51439;BME280;38816;51.142;-0.974;2023-02-18T00:31:06;100864.94;;;10.04;100.00
51439;BME280;38816;51.142;-0.974;2023-02-18T00:33:32;100859.63;;;9.96;100.00
51439;BME280;38816;51.142;-0.974;2023-02-18T00:36:03;100874.31;;;10.02;100.00
51439;BME280;38816;51.142;-0.974;2023-02-18T00:38:29;100854.50;;;9.98;100.00
51439;BME280;38816;51.142;-0.974;2023-02-18T00:40:54;100854.38;;;9.93;100.00
51439;BME280;38816;51.142;-0.974;2023-02-18T00:43:20;100867.63;;;10.07;100.00
51439;BME280;38816;51.142;-0.974;2023-02-18T00:45:45;100848.63;;;10.02;100.00
51439;BME280;38816;51.142;-0.974;2023-02-18T00:48:10;100848.53;;;9.99;100.00
51439;BME280;38816;51.142;-0.974;2023-02-18T00:50:36;100858.19;;;10.06;100.00
51439;BME280;38816;51.142;-0.974;2023-02-18T00:53:01;100840.81;;;9.97;100.00
51439;BME280;38816;51.142;-0.974;2023-02-18T00:55:27;100851.94;;;9.98;100.00
51439;BME280;38816;51.142;-0.974;2023-02-18T00:57:52;100852.59;;;9.90;100.00
51439;BME280;38816;51.142;-0.974;2023-02-18T01:00:18;100847.59;;;9.95;100.00
51439;BME280;38816;51.142;-0.974;2023-02-18T01:02:44;100847.44;;;9.90;100.00
51439;BME280;38816;51.142;-0.974;2023-02-18T01:05:09;100843.88;;;9.85;100.00
51439;BME280;38816;51.142;-0.974;2023-02-18T01:07:34;100838.22;;;9.67;100.00
51439;BME280;38816;51.142;-0.974;2023-02-18T01:10:00;100856.28;;;9.70;100.00
51439;BME280;38816;51.142;-0.974;2023-02-18T01:12:25;100841.59;;;9.66;100.00
51439;BME280;38816;51.142;-0.974;2023-02-18T01:14:51;100830.34;;;9.61;100.00
51439;BME280;38816;51.142;-0.974;2023-02-18T01:17:16;100830.16;;;9.55;100.00
51439;BME280;38816;51.142;-0.974;2023-02-18T01:19:41;100839.31;;;9.47;100.00
51439;BME280;38816;51.142;-0.974;2023-02-18T01:22:07;100842.03;;;9.51;100.00
51439;BME280;38816;51.142;-0.974;2023-02-18T01:24:32;100844.50;;;9.48;100.00
51439;BME280;38816;51.142;-0.974;2023-02-18T01:26:58;100851.50;;;9.54;100.00
51439;BME280;38816;51.142;-0.974;2023-02-18T01:29:23;100834.22;;;9.48;100.00
51439;BME280;38816;51.142;-0.974;2023-02-18T01:31:49;100835.22;;;9.53;100.00
51439;BME280;38816;51.142;-0.974;2023-02-18T01:34:14;100827.41;;;9.49;100.00
51439;BME280;38816;51.142;-0.974;2023-02-18T01:36:40;100841.38;;;9.58;100.00
51439;BME280;38816;51.142;-0.974;2023-02-18T01:39:05;100842.72;;;9.46;100.00
51439;BME280;38816;51.142;-0.974;2023-02-18T01:41:31;100851.59;;;9.57;100.00
51439;BME280;38816;51.142;-0.974;2023-02-18T01:44:23;100850.00;;;9.60;100.00
51439;BME280;38816;51.142;-0.974;2023-02-18T01:46:49;100839.47;;;9.51;100.00
51439;BME280;38816;51.142;-0.974;2023-02-18T01:49:27;100841.69;;;9.41;100.00
51439;BME280;38816;51.142;-0.974;2023-02-18T01:52:01;100849.97;;;9.32;100.00
51439;BME280;38816;51.142;-0.974;2023-02-18T01:54:31;100857.03;;;9.39;100.00
51439;BME280;38816;51.142;-0.974;2023-02-18T01:57:02;100866.53;;;9.42;100.00
51439;BME280;38816;51.142;-0.974;2023-02-18T01:59:33;100852.50;;;9.59;100.00
51439;BME280;38816;51.142;-0.974;2023-02-18T02:02:01;100851.94;;;9.41;100.00
51439;BME280;38816;51.142;-0.974;2023-02-18T02:04:26;100867.56;;;9.47;100.00
51439;BME280;38816;51.142;-0.974;2023-02-18T02:06:52;100860.84;;;9.23;100.00
51439;BME280;38816;51.142;-0.974;2023-02-18T02:09:20;100854.66;;;9.18;100.00
51439;BME280;38816;51.142;-0.974;2023-02-18T02:15:20;100868.47;;;9.22;100.00
51439;BME280;38816;51.142;-0.974;2023-02-18T02:34:36;100853.00;;;9.46;100.00
51439;BME280;38816;51.142;-0.974;2023-02-18T02:37:22;100847.66;;;9.39;100.00
51439;BME280;38816;51.142;-0.974;2023-02-18T02:43:04;100828.00;;;9.40;100.00
51439;BME280;38816;51.142;-0.974;2023-02-18T02:48:48;100819.63;;;9.46;100.00
51439;BME280;38816;51.142;-0.974;2023-02-18T02:53:49;100824.75;;;9.46;100.00
51439;BME280;38816;51.142;-0.974;2023-02-18T02:56:17;100807.59;;;9.45;100.00
51439;BME280;38816;51.142;-0.974;2023-02-18T02:58:44;100810.22;;;9.46;100.00
51439;BME280;38816;51.142;-0.974;2023-02-18T03:01:36;100802.47;;;9.45;100.00
51439;BME280;38816;51.142;-0.974;2023-02-18T03:12:05;100797.16;;;9.38;100.00
51439;BME280;38816;51.142;-0.974;2023-02-18T03:17:26;100780.63;;;9.29;100.00
51439;BME280;38816;51.142;-0.974;2023-02-18T03:19:58;100785.78;;;9.30;100.00
51439;BME280;38816;51.142;-0.974;2023-02-18T03:22:33;100766.00;;;9.26;100.00
51439;BME280;38816;51.142;-0.974;2023-02-18T03:25:02;100755.31;;;9.12;100.00
51439;BME280;38816;51.142;-0.974;2023-02-18T03:27:37;100739.03;;;9.10;100.00
51439;BME280;38816;51.142;-0.974;2023-02-18T03:30:14;100740.88;;;9.15;100.00
51439;BME280;38816;51.142;-0.974;2023-02-18T03:32:40;100751.06;;;9.13;100.00
51439;BME280;38816;51.142;-0.974;2023-02-18T03:35:12;100739.78;;;9.08;100.00
51439;BME280;38816;51.142;-0.974;2023-02-18T03:37:44;100734.03;;;9.15;100.00
51439;BME280;38816;51.142;-0.974;2023-02-18T03:40:11;100735.03;;;9.20;100.00
51439;BME280;38816;51.142;-0.974;2023-02-18T03:42:36;100747.72;;;9.16;100.00
51439;BME280;38816;51.142;-0.974;2023-02-18T03:45:02;100718.56;;;9.12;100.00
51439;BME280;38816;51.142;-0.974;2023-02-18T03:47:28;100721.28;;;9.18;100.00
51439;BME280;38816;51.142;-0.974;2023-02-18T03:49:53;100708.75;;;8.99;100.00
51439;BME280;38816;51.142;-0.974;2023-02-18T03:52:19;100712.63;;;8.86;100.00
51439;BME280;38816;51.142;-0.974;2023-02-18T03:54:44;100693.53;;;8.76;100.00
51439;BME280;38816;51.142;-0.974;2023-02-18T03:57:09;100691.56;;;8.68;100.00
51439;BME280;38816;51.142;-0.974;2023-02-18T03:59:35;100683.88;;;8.68;100.00
51439;BME280;38816;51.142;-0.974;2023-02-18T04:02:00;100693.84;;;8.60;100.00
51439;BME280;38816;51.142;-0.974;2023-02-18T04:04:27;100704.44;;;8.69;100.00
51439;BME280;38816;51.142;-0.974;2023-02-18T04:06:52;100714.19;;;8.81;100.00
51439;BME280;38816;51.142;-0.974;2023-02-18T04:09:18;100707.47;;;8.84;100.00
51439;BME280;38816;51.142;-0.974;2023-02-18T04:11:43;100706.63;;;8.85;100.00
51439;BME280;38816;51.142;-0.974;2023-02-18T04:14:12;100703.22;;;8.86;100.00
51439;BME280;38816;51.142;-0.974;2023-02-18T04:16:37;100708.56;;;8.93;100.00
51439;BME280;38816;51.142;-0.974;2023-02-18T04:19:03;100696.66;;;8.95;100.00
51439;BME280;38816;51.142;-0.974;2023-02-18T04:21:28;100702.44;;;9.16;100.00
51439;BME280;38816;51.142;-0.974;2023-02-18T04:23:54;100710.84;;;9.12;100.00
51439;BME280;38816;51.142;-0.974;2023-02-18T04:26:19;100702.16;;;9.07;100.00
51439;BME280;38816;51.142;-0.974;2023-02-18T04:28:45;100702.75;;;8.98;100.00
51439;BME280;38816;51.142;-0.974;2023-02-18T04:31:10;100709.97;;;9.11;100.00
51439;BME280;38816;51.142;-0.974;2023-02-18T04:33:36;100699.69;;;9.10;100.00
51439;BME280;38816;51.142;-0.974;2023-02-18T04:36:01;100701.34;;;9.09;100.00
51439;BME280;38816;51.142;-0.974;2023-02-18T04:38:28;100697.75;;;9.03;100.00
51439;BME280;38816;51.142;-0.974;2023-02-18T04:40:53;100699.59;;;9.07;100.00
51439;BME280;38816;51.142;-0.974;2023-02-18T04:43:18;100693.38;;;9.00;100.00
51439;BME280;38816;51.142;-0.974;2023-02-18T04:45:44;100707.47;;;9.13;100.00
51439;BME280;38816;51.142;-0.974;2023-02-18T04:48:09;100698.91;;;9.12;100.00
51439;BME280;38816;51.142;-0.974;2023-02-18T04:50:35;100706.59;;;9.12;100.00
51439;BME280;38816;51.142;-0.974;2023-02-18T04:53:00;100708.97;;;9.06;100.00
51439;BME280;38816;51.142;-0.974;2023-02-18T04:55:26;100686.47;;;8.96;100.00
51439;BME280;38816;51.142;-0.974;2023-02-18T04:57:51;100701.72;;;8.92;100.00
51439;BME280;38816;51.142;-0.974;2023-02-18T05:00:18;100702.47;;;8.89;100.00
51439;BME280;38816;51.142;-0.974;2023-02-18T05:02:44;100705.06;;;8.91;100.00
51439;BME280;38816;51.142;-0.974;2023-02-18T05:05:10;100700.78;;;8.90;100.00
51439;BME280;38816;51.142;-0.974;2023-02-18T05:07:36;100699.94;;;8.91;100.00
51439;BME280;38816;51.142;-0.974;2023-02-18T05:10:02;100705.19;;;8.94;100.00
51439;BME280;38816;51.142;-0.974;2023-02-18T05:12:27;100709.59;;;8.99;100.00
51439;BME280;38816;51.142;-0.974;2023-02-18T05:14:53;100694.81;;;8.91;100.00
51439;BME280;38816;51.142;-0.974;2023-02-18T05:17:18;100697.25;;;8.86;100.00
51439;BME280;38816;51.142;-0.974;2023-02-18T05:19:44;100714.59;;;8.95;100.00
51439;BME280;38816;51.142;-0.974;2023-02-18T05:22:09;100709.47;;;8.95;100.00
51439;BME280;38816;51.142;-0.974;2023-02-18T05:24:35;100700.16;;;8.97;100.00
51439;BME280;38816;51.142;-0.974;2023-02-18T05:27:00;100699.03;;;8.88;100.00
51439;BME280;38816;51.142;-0.974;2023-02-18T05:29:25;100698.19;;;8.88;100.00
51439;BME280;38816;51.142;-0.974;2023-02-18T05:31:51;100714.44;;;8.88;100.00
51439;BME280;38816;51.142;-0.974;2023-02-18T05:34:16;100701.50;;;8.85;100.00
51439;BME280;38816;51.142;-0.974;2023-02-18T05:36:42;100717.13;;;8.93;100.00
51439;BME280;38816;51.142;-0.974;2023-02-18T05:39:07;100720.41;;;8.89;100.00
51439;BME280;38816;51.142;-0.974;2023-02-18T05:41:33;100721.44;;;8.94;100.00
51439;BME280;38816;51.142;-0.974;2023-02-18T05:43:58;100720.66;;;8.97;100.00
51439;BME280;38816;51.142;-0.974;2023-02-18T05:46:41;100721.66;;;9.02;100.00
51439;BME280;38816;51.142;-0.974;2023-02-18T05:49:07;100710.31;;;8.94;100.00
51439;BME280;38816;51.142;-0.974;2023-02-18T05:51:32;100718.91;;;8.96;100.00
51439;BME280;38816;51.142;-0.974;2023-02-18T05:53:58;100721.56;;;8.99;100.00
51439;BME280;38816;51.142;-0.974;2023-02-18T05:56:23;100720.94;;;9.06;100.00
51439;BME280;38816;51.142;-0.974;2023-02-18T05:58:49;100706.06;;;8.96;100.00
51439;BME280;38816;51.142;-0.974;2023-02-18T06:01:14;100718.16;;;9.00;100.00
51439;BME280;38816;51.142;-0.974;2023-02-18T06:03:40;100724.31;;;9.05;100.00
51439;BME280;38816;51.142;-0.974;2023-02-18T06:06:05;100709.47;;;8.95;100.00
51439;BME280;38816;51.142;-0.974;2023-02-18T06:08:31;100700.22;;;9.00;100.00
51439;BME280;38816;51.142;-0.974;2023-02-18T06:10:56;100710.47;;;9.00;100.00
51439;BME280;38816;51.142;-0.974;2023-02-18T06:13:22;100709.53;;;8.96;100.00
51439;BME280;38816;51.142;-0.974;2023-02-18T06:15:50;100713.88;;;8.99;100.00
51439;BME280;38816;51.142;-0.974;2023-02-18T06:18:16;100705.19;;;8.94;100.00
51439;BME280;38816;51.142;-0.974;2023-02-18T06:20:41;100718.13;;;8.98;100.00
51439;BME280;38816;51.142;-0.974;2023-02-18T06:23:07;100714.69;;;8.98;100.00
51439;BME280;38816;51.142;-0.974;2023-02-18T06:25:32;100700.88;;;8.93;100.00
51439;BME280;38816;51.142;-0.974;2023-02-18T06:27:57;100725.00;;;8.99;100.00
51439;BME280;38816;51.142;-0.974;2023-02-18T06:30:23;100718.16;;;9.00;100.00
51439;BME280;38816;51.142;-0.974;2023-02-18T06:32:48;100715.31;;;8.91;100.00
51439;BME280;38816;51.142;-0.974;2023-02-18T06:35:14;100718.53;;;8.83;100.00
51439;BME280;38816;51.142;-0.974;2023-02-18T06:37:39;100707.03;;;8.71;100.00
51439;BME280;38816;51.142;-0.974;2023-02-18T06:40:05;100701.50;;;8.58;100.00
51439;BME280;38816;51.142;-0.974;2023-02-18T06:42:31;100707.63;;;8.62;100.00
51439;BME280;38816;51.142;-0.974;2023-02-18T06:44:56;100687.78;;;8.56;100.00
51439;BME280;38816;51.142;-0.974;2023-02-18T06:47:22;100697.25;;;8.59;100.00
51439;BME280;38816;51.142;-0.974;2023-02-18T06:49:47;100700.66;;;8.58;100.00
51439;BME280;38816;51.142;-0.974;2023-02-18T06:52:13;100691.22;;;8.57;100.00
51439;BME280;38816;51.142;-0.974;2023-02-18T06:54:38;100691.41;;;8.63;100.00
51439;BME280;38816;51.142;-0.974;2023-02-18T06:57:04;100699.19;;;8.66;100.00
51439;BME280;38816;51.142;-0.974;2023-02-18T06:59:29;100673.34;;;8.60;100.00
51439;BME280;38816;51.142;-0.974;2023-02-18T07:01:54;100695.94;;;8.72;100.00
51439;BME280;38816;51.142;-0.974;2023-02-18T07:04:20;100679.47;;;8.63;100.00
51439;BME280;38816;51.142;-0.974;2023-02-18T07:06:45;100679.41;;;8.62;100.00
51439;BME280;38816;51.142;-0.974;2023-02-18T07:09:11;100700.16;;;8.70;100.00
51439;BME280;38816;51.142;-0.974;2023-02-18T07:11:36;100692.41;;;8.68;100.00
51439;BME280;38816;51.142;-0.974;2023-02-18T07:14:01;100701.88;;;8.69;100.00
51439;BME280;38816;51.142;-0.974;2023-02-18T07:16:27;100699.31;;;8.69;100.00
51439;BME280;38816;51.142;-0.974;2023-02-18T07:18:52;100700.22;;;8.71;100.00
51439;BME280;38816;51.142;-0.974;2023-02-18T07:21:17;100691.50;;;8.66;100.00
51439;BME280;38816;51.142;-0.974;2023-02-18T07:23:43;100703.75;;;8.75;100.00
51439;BME280;38816;51.142;-0.974;2023-02-18T07:26:13;100709.75;;;8.75;100.00
51439;BME280;38816;51.142;-0.974;2023-02-18T07:28:39;100706.25;;;8.73;100.00
51439;BME280;38816;51.142;-0.974;2023-02-18T07:31:05;100709.84;;;8.78;100.00
51439;BME280;38816;51.142;-0.974;2023-02-18T07:33:30;100707.91;;;8.71;100.00
51439;BME280;38816;51.142;-0.974;2023-02-18T07:35:57;100708.56;;;8.93;100.00
51439;BME280;38816;51.142;-0.974;2023-02-18T07:38:24;100711.16;;;8.94;100.00
51439;BME280;38816;51.142;-0.974;2023-02-18T07:40:50;100708.38;;;8.86;100.00
51439;BME280;38816;51.142;-0.974;2023-02-18T07:43:16;100709.22;;;8.87;100.00
51439;BME280;38816;51.142;-0.974;2023-02-18T07:45:41;100705.94;;;8.91;100.00
51439;BME280;38816;51.142;-0.974;2023-02-18T07:48:07;100708.84;;;9.02;100.00
51439;BME280;38816;51.142;-0.974;2023-02-18T07:50:32;100719.28;;;9.08;100.00
51439;BME280;38816;51.142;-0.974;2023-02-18T07:53:01;100707.38;;;9.10;100.00
51439;BME280;38816;51.142;-0.974;2023-02-18T07:55:27;100716.94;;;9.16;100.00
51439;BME280;38816;51.142;-0.974;2023-02-18T07:58:12;100724.63;;;9.14;100.00
51439;BME280;38816;51.142;-0.974;2023-02-18T08:00:38;100728.06;;;9.16;100.00
51439;BME280;38816;51.142;-0.974;2023-02-18T08:03:03;100726.63;;;9.24;100.00
51439;BME280;38816;51.142;-0.974;2023-02-18T08:05:28;100729.13;;;9.23;100.00
51439;BME280;38816;51.142;-0.974;2023-02-18T08:07:54;100724.81;;;9.22;100.00
51439;BME280;38816;51.142;-0.974;2023-02-18T08:10:20;100709.44;;;9.22;100.00
51439;BME280;38816;51.142;-0.974;2023-02-18T08:12:45;100718.94;;;9.26;100.00
51439;BME280;38816;51.142;-0.974;2023-02-18T08:15:13;100707.00;;;9.26;100.00
51439;BME280;38816;51.142;-0.974;2023-02-18T08:17:38;100721.91;;;9.39;100.00
51439;BME280;38816;51.142;-0.974;2023-02-18T08:20:04;100712.53;;;9.40;100.00
51439;BME280;38816;51.142;-0.974;2023-02-18T08:22:30;100703.91;;;9.38;100.00
51439;BME280;38816;51.142;-0.974;2023-02-18T08:24:55;100716.28;;;9.51;100.00
51439;BME280;38816;51.142;-0.974;2023-02-18T08:27:22;100698.25;;;9.50;100.00
51439;BME280;38816;51.142;-0.974;2023-02-18T08:29:47;100693.38;;;9.59;100.00
51439;BME280;38816;51.142;-0.974;2023-02-18T08:32:12;100707.88;;;9.57;100.00
51439;BME280;38816;51.142;-0.974;2023-02-18T08:34:38;100705.91;;;9.78;100.00
51439;BME280;38816;51.142;-0.974;2023-02-18T08:37:04;100707.38;;;9.70;100.00
51439;BME280;38816;51.142;-0.974;2023-02-18T08:39:35;100694.38;;;9.64;100.00
51439;BME280;38816;51.142;-0.974;2023-02-18T08:42:02;100709.13;;;9.71;100.00
51439;BME280;38816;51.142;-0.974;2023-02-18T08:44:28;100704.06;;;9.74;100.00
51439;BME280;38816;51.142;-0.974;2023-02-18T08:46:53;100699.72;;;9.72;100.00
51439;BME280;38816;51.142;-0.974;2023-02-18T08:49:19;100707.78;;;9.85;100.00
51439;BME280;38816;51.142;-0.974;2023-02-18T08:51:51;100719.81;;;9.86;100.00
51439;BME280;38816;51.142;-0.974;2023-02-18T08:54:16;100708.00;;;9.93;100.00
51439;BME280;38816;51.142;-0.974;2023-02-18T08:56:43;100713.34;;;10.01;100.00
51439;BME280;38816;51.142;-0.974;2023-02-18T08:59:08;100710.84;;;10.04;100.00
51439;BME280;38816;51.142;-0.974;2023-02-18T09:01:34;100720.00;;;10.26;100.00
51439;BME280;38816;51.142;-0.974;2023-02-18T09:03:59;100720.19;;;10.33;100.00
51439;BME280;38816;51.142;-0.974;2023-02-18T09:06:25;100727.41;;;10.48;100.00
51439;BME280;38816;51.142;-0.974;2023-02-18T09:08:50;100710.47;;;10.56;100.00
51439;BME280;38816;51.142;-0.974;2023-02-18T09:11:16;100709.63;;;10.56;100.00
51439;BME280;38816;51.142;-0.974;2023-02-18T09:13:42;100724.09;;;10.52;100.00
51439;BME280;38816;51.142;-0.974;2023-02-18T09:16:13;100715.47;;;10.50;100.00
51439;BME280;38816;51.142;-0.974;2023-02-18T09:18:39;100721.72;;;10.60;100.00
51439;BME280;38816;51.142;-0.974;2023-02-18T09:21:06;100718.16;;;10.55;100.00
51439;BME280;38816;51.142;-0.974;2023-02-18T09:23:33;100713.25;;;10.64;100.00
51439;BME280;38816;51.142;-0.974;2023-02-18T09:25:59;100717.56;;;10.67;100.00
51439;BME280;38816;51.142;-0.974;2023-02-18T09:28:28;100712.28;;;10.59;100.00
51439;BME280;38816;51.142;-0.974;2023-02-18T09:30:54;100708.66;;;10.52;100.00
51439;BME280;38816;51.142;-0.974;2023-02-18T09:33:20;100694.09;;;10.53;100.00
51439;BME280;38816;51.142;-0.974;2023-02-18T09:35:46;100716.69;;;10.66;100.00
51439;BME280;38816;51.142;-0.974;2023-02-18T09:38:14;100717.72;;;10.73;100.00
51439;BME280;38816;51.142;-0.974;2023-02-18T09:40:49;100704.91;;;10.74;100.00
51439;BME280;38816;51.142;-0.974;2023-02-18T09:43:41;100717.13;;;10.84;100.00
51439;BME280;38816;51.142;-0.974;2023-02-18T09:49:22;100709.38;;;10.81;100.00
51439;BME280;38816;51.142;-0.974;2023-02-18T09:51:49;100696.84;;;10.97;100.00
51439;BME280;38816;51.142;-0.974;2023-02-18T09:54:17;100712.66;;;11.13;100.00
51439;BME280;38816;51.142;-0.974;2023-02-18T09:56:43;100699.09;;;11.22;100.00
51439;BME280;38816;51.142;-0.974;2023-02-18T09:59:20;100703.63;;;11.34;100.00
51439;BME280;38816;51.142;-0.974;2023-02-18T10:01:48;100692.59;;;11.39;100.00
51439;BME280;38816;51.142;-0.974;2023-02-18T10:04:20;100697.03;;;11.47;100.00
51439;BME280;38816;51.142;-0.974;2023-02-18T10:06:49;100693.69;;;11.51;100.00
51439;BME280;38816;51.142;-0.974;2023-02-18T10:09:36;100695.75;;;11.69;100.00
51439;BME280;38816;51.142;-0.974;2023-02-18T10:12:17;100701.84;;;11.74;100.00
51439;BME280;38816;51.142;-0.974;2023-02-18T10:14:47;100712.06;;;11.69;100.00
51439;BME280;38816;51.142;-0.974;2023-02-18T10:17:15;100697.44;;;11.68;100.00
51439;BME280;38816;51.142;-0.974;2023-02-18T10:19:43;100717.44;;;11.81;100.00
51439;BME280;38816;51.142;-0.974;2023-02-18T10:22:11;100705.50;;;11.83;100.00
51439;BME280;38816;51.142;-0.974;2023-02-18T10:24:41;100715.84;;;11.86;100.00
51439;BME280;38816;51.142;-0.974;2023-02-18T10:27:08;100721.75;;;11.81;100.00
51439;BME280;38816;51.142;-0.974;2023-02-18T10:29:34;100726.03;;;11.80;100.00
51439;BME280;38816;51.142;-0.974;2023-02-18T10:32:31;100731.78;;;11.69;100.00
51439;BME280;38816;51.142;-0.974;2023-02-18T10:35:04;100732.69;;;11.71;100.00
51439;BME280;38816;51.142;-0.974;2023-02-18T10:43:11;100739.69;;;11.76;100.00
51439;BME280;38816;51.142;-0.974;2023-02-18T10:46:23;100738.94;;;11.82;100.00
51439;BME280;38816;51.142;-0.974;2023-02-18T10:49:12;100754.59;;;11.93;100.00
51439;BME280;38816;51.142;-0.974;2023-02-18T10:51:44;100732.38;;;11.98;100.00
51439;BME280;38816;51.142;-0.974;2023-02-18T10:54:13;100741.28;;;12.15;100.00
51439;BME280;38816;51.142;-0.974;2023-02-18T10:56:47;100740.56;;;12.22;100.00
51439;BME280;38816;51.142;-0.974;2023-02-18T10:59:21;100740.81;;;12.37;100.00
51439;BME280;38816;51.142;-0.974;2023-02-18T11:01:58;100711.00;;;12.53;100.00
51439;BME280;38816;51.142;-0.974;2023-02-18T11:04:36;100711.16;;;12.64;100.00
51439;BME280;38816;51.142;-0.974;2023-02-18T11:07:05;100725.88;;;12.70;100.00
51439;BME280;38816;51.142;-0.974;2023-02-18T11:12:14;100731.88;;;12.68;100.00
51439;BME280;38816;51.142;-0.974;2023-02-18T11:14:44;100726.50;;;12.55;100.00
51439;BME280;38816;51.142;-0.974;2023-02-18T11:17:17;100724.03;;;12.61;100.00
51439;BME280;38816;51.142;-0.974;2023-02-18T11:19:42;100736.16;;;12.68;100.00
51439;BME280;38816;51.142;-0.974;2023-02-18T11:22:15;100746.25;;;12.54;100.00
51439;BME280;38816;51.142;-0.974;2023-02-18T11:24:43;100751.38;;;12.51;100.00
51439;BME280;38816;51.142;-0.974;2023-02-18T11:27:45;100743.59;;;12.50;100.00
51439;BME280;38816;51.142;-0.974;2023-02-18T11:32:49;100735.31;;;12.69;100.00
51439;BME280;38816;51.142;-0.974;2023-02-18T11:35:21;100736.31;;;12.77;100.00
51439;BME280;38816;51.142;-0.974;2023-02-18T11:37:49;100738.28;;;12.93;100.00
51439;BME280;38816;51.142;-0.974;2023-02-18T11:40:22;100742.38;;;12.79;100.00
51439;BME280;38816;51.142;-0.974;2023-02-18T11:42:48;100744.75;;;12.67;100.00
51439;BME280;38816;51.142;-0.974;2023-02-18T11:45:30;100738.63;;;12.60;100.00
51439;BME280;38816;51.142;-0.974;2023-02-18T11:50:33;100740.53;;;12.72;100.00
51439;BME280;38816;51.142;-0.974;2023-02-18T11:52:59;100733.66;;;12.71;100.00
51439;BME280;38816;51.142;-0.974;2023-02-18T11:55:27;100741.41;;;12.74;100.00
51439;BME280;38816;51.142;-0.974;2023-02-18T11:58:03;100738.19;;;12.87;100.00
51439;BME280;38816;51.142;-0.974;2023-02-18T12:00:44;100719.31;;;12.91;100.00
51439;BME280;38816;51.142;-0.974;2023-02-18T12:03:21;100721.81;;;12.84;100.00
51439;BME280;38816;51.142;-0.974;2023-02-18T12:05:49;100728.69;;;12.86;100.00
51439;BME280;38816;51.142;-0.974;2023-02-18T12:08:23;100728.78;;;12.91;100.00
51439;BME280;38816;51.142;-0.974;2023-02-18T12:11:11;100714.06;;;12.85;100.00
51439;BME280;38816;51.142;-0.974;2023-02-18T12:13:50;100724.59;;;13.01;100.00
51439;BME280;38816;51.142;-0.974;2023-02-18T12:30:34;100726.09;;;12.83;100.00
51439;BME280;38816;51.142;-0.974;2023-02-18T12:33:28;100724.13;;;12.67;100.00
51439;BME280;38816;51.142;-0.974;2023-02-18T12:41:33;100728.44;;;12.70;100.00
51439;BME280;38816;51.142;-0.974;2023-02-18T12:46:58;100719.81;;;12.67;100.00
51439;BME280;38816;51.142;-0.974;2023-02-18T13:17:57;100708.13;;;12.89;100.00
51439;BME280;38816;51.142;-0.974;2023-02-18T13:20:41;100710.56;;;12.80;100.00
51439;BME280;38816;51.142;-0.974;2023-02-18T13:23:16;100688.78;;;12.61;100.00
51439;BME280;38816;51.142;-0.974;2023-02-18T13:25:43;100688.00;;;12.67;100.00
51439;BME280;38816;51.142;-0.974;2023-02-18T13:30:51;100689.88;;;12.77;100.00
51439;BME280;38816;51.142;-0.974;2023-02-18T13:39:07;100672.13;;;12.39;100.00
51439;BME280;38816;51.142;-0.974;2023-02-18T13:41:35;100662.44;;;12.26;100.00
51439;BME280;38816;51.142;-0.974;2023-02-18T13:44:38;100654.91;;;12.38;100.00
51439;BME280;38816;51.142;-0.974;2023-02-18T13:46:56;100661.16;;;12.56;100.00
51439;BME280;38816;51.142;-0.974;2023-02-18T13:49:23;100660.69;;;12.80;100.00
51439;BME280;38816;51.142;-0.974;2023-02-18T13:51:52;100649.88;;;13.08;100.00
51439;BME280;38816;51.142;-0.974;2023-02-18T13:54:28;100649.06;;;13.14;100.00
51439;BME280;38816;51.142;-0.974;2023-02-18T13:57:01;100667.88;;;13.05;100.00
51439;BME280;38816;51.142;-0.974;2023-02-18T14:09:50;100638.53;;;12.96;100.00
51439;BME280;38816;51.142;-0.974;2023-02-18T14:14:48;100642.19;;;13.11;100.00
51439;BME280;38816;51.142;-0.974;2023-02-18T14:19:52;100647.34;;;13.14;100.00
51439;BME280;38816;51.142;-0.974;2023-02-18T14:27:44;100637.03;;;13.13;100.00
51439;BME280;38816;51.142;-0.974;2023-02-18T14:32:55;100637.94;;;13.16;100.00
51439;BME280;38816;51.142;-0.974;2023-02-18T14:51:09;100642.38;;;12.63;100.00
51439;BME280;38816;51.142;-0.974;2023-02-18T14:53:42;100633.59;;;12.50;100.00
51439;BME280;38816;51.142;-0.974;2023-02-18T14:56:12;100633.25;;;12.27;100.00
51439;BME280;38816;51.142;-0.974;2023-02-18T14:58:43;100641.72;;;12.20;100.00
51439;BME280;38816;51.142;-0.974;2023-02-18T15:01:36;100641.63;;;12.14;100.00
51439;BME280;38816;51.142;-0.974;2023-02-18T15:04:03;100646.69;;;12.08;100.00
51439;BME280;38816;51.142;-0.974;2023-02-18T15:06:36;100638.97;;;12.11;100.00
51439;BME280;38816;51.142;-0.974;2023-02-18T15:09:18;100624.34;;;12.08;100.00
51439;BME280;38816;51.142;-0.974;2023-02-18T15:14:19;100628.81;;;12.20;100.00
51439;BME280;38816;51.142;-0.974;2023-02-18T15:16:46;100621.91;;;12.16;100.00
51439;BME280;38816;51.142;-0.974;2023-02-18T15:19:17;100633.16;;;12.23;100.00
51439;BME280;38816;51.142;-0.974;2023-02-18T15:21:46;100617.41;;;12.04;100.00